createdAt,value
2019-05-11T00:01:50.035Z,14.63
2019-05-11T00:04:18.655Z,12.20
2019-05-11T00:06:47.058Z,16.33
2019-05-11T00:09:15.539Z,11.20
2019-05-11T00:11:44.011Z,11.53
2019-05-11T00:14:12.498Z,11.27
2019-05-11T00:16:40.978Z,12.03
2019-05-11T00:19:09.586Z,11.17
2019-05-11T00:21:38.063Z,11.23
2019-05-11T00:24:06.565Z,12.23
2019-05-11T00:26:35.102Z,11.47
2019-05-11T00:29:03.591Z,16.20
2019-05-11T00:31:32.084Z,14.17
2019-05-11T00:34:00.623Z,13.23
2019-05-11T00:36:29.038Z,10.23
2019-05-11T00:38:57.522Z,11.47
2019-05-11T00:41:26.058Z,10.40
2019-05-11T00:43:54.536Z,12.97
2019-05-11T00:46:23.476Z,13.80
2019-05-11T00:48:51.950Z,13.13
2019-05-11T00:51:20.445Z,11.63
2019-05-11T00:53:48.917Z,10.77
2019-05-11T00:56:17.462Z,12.33
2019-05-11T00:58:46.112Z,11.10
2019-05-11T01:01:14.590Z,17.73
2019-05-11T01:03:43.276Z,16.07
2019-05-11T01:06:11.762Z,10.87
2019-05-11T01:08:40.586Z,13.63
2019-05-11T01:11:09.059Z,14.17
2019-05-11T01:13:37.610Z,10.90
2019-05-11T01:16:06.164Z,12.50
2019-05-11T01:18:34.710Z,17.63
2019-05-11T01:21:03.194Z,14.57
2019-05-11T01:23:31.759Z,19.60
2019-05-11T01:26:00.244Z,15.47
2019-05-11T01:28:28.794Z,14.33
2019-05-11T01:30:57.218Z,16.03
2019-05-11T01:33:25.774Z,20.07
2019-05-11T01:35:54.257Z,18.13
2019-05-11T01:38:22.745Z,22.13
2019-05-11T01:40:58.634Z,20.20
2019-05-11T01:43:21.374Z,18.33
2019-05-11T01:45:49.964Z,23.67
2019-05-11T01:48:18.538Z,22.63
2019-05-11T01:50:47.110Z,23.80
2019-05-11T01:53:15.733Z,22.87
2019-05-11T01:55:44.298Z,24.57
2019-05-11T01:58:12.911Z,23.50
2019-05-11T02:00:41.449Z,23.30
2019-05-11T02:03:09.933Z,25.27
2019-05-11T02:05:38.484Z,23.43
2019-05-11T02:08:06.944Z,24.73
2019-05-11T02:10:35.442Z,26.80
2019-05-11T02:13:03.920Z,21.43
2019-05-11T02:15:32.471Z,22.70
2019-05-11T02:18:01.146Z,25.87
2019-05-11T02:20:29.523Z,26.90
2019-05-11T02:22:58.068Z,24.10
2019-05-11T02:25:26.545Z,22.87
2019-05-11T02:27:55.098Z,21.20
2019-05-11T02:30:23.644Z,24.60
2019-05-11T02:32:52.138Z,23.03
2019-05-11T02:35:20.634Z,21.67
2019-05-11T02:37:49.103Z,22.13
2019-05-11T02:40:17.766Z,21.10
2019-05-11T02:42:46.243Z,22.23
2019-05-11T02:45:17.619Z,20.77
2019-05-11T02:47:46.031Z,23.67
2019-05-11T02:50:14.511Z,23.03
2019-05-11T02:52:43.071Z,19.97
2019-05-11T02:55:11.557Z,18.77
2019-05-11T02:57:40.049Z,20.43
2019-05-11T03:00:09.024Z,26.00
2019-05-11T03:02:37.511Z,17.87
2019-05-11T03:05:07.627Z,17.83
2019-05-11T03:07:36.171Z,23.17
2019-05-11T03:10:05.126Z,18.07
2019-05-11T03:12:33.614Z,15.97
2019-05-11T03:15:02.090Z,17.80
2019-05-11T03:17:32.140Z,27.27
2019-05-11T03:20:00.622Z,24.80
2019-05-11T03:22:29.163Z,26.07
2019-05-11T03:24:57.721Z,24.00
2019-05-11T03:27:26.237Z,21.30
2019-05-11T03:29:54.861Z,28.63
2019-05-11T03:32:23.440Z,28.90
2019-05-11T03:34:51.930Z,33.83
2019-05-11T03:37:20.461Z,38.53
2019-05-11T03:39:48.952Z,34.07
2019-05-11T03:42:17.420Z,26.90
2019-05-11T03:44:45.979Z,35.43
2019-05-11T03:47:14.526Z,34.00
2019-05-11T03:49:43.019Z,29.00
2019-05-11T03:52:11.562Z,32.53
2019-05-11T03:54:40.038Z,41.57
2019-05-11T03:57:08.517Z,41.03
2019-05-11T03:59:37.076Z,37.30
2019-05-11T04:02:05.486Z,38.63
2019-05-11T04:04:33.910Z,39.77
2019-05-11T04:07:02.455Z,37.60
2019-05-11T04:09:30.950Z,34.53
2019-05-11T04:11:59.444Z,29.43
2019-05-11T04:14:27.992Z,25.60
2019-05-11T04:16:56.406Z,39.57
2019-05-11T04:19:24.888Z,31.27
2019-05-11T04:21:53.430Z,29.90
2019-05-11T04:24:21.915Z,33.77
2019-05-11T04:26:50.433Z,34.67
2019-05-11T04:29:18.987Z,34.50
2019-05-11T04:31:47.532Z,26.70
2019-05-11T04:34:16.078Z,27.57
2019-05-11T04:36:44.630Z,29.00
2019-05-11T04:39:13.188Z,26.03
2019-05-11T04:41:41.668Z,30.00
2019-05-11T04:44:10.374Z,27.60
2019-05-11T04:46:38.787Z,26.77
2019-05-11T04:49:07.274Z,27.37
2019-05-11T04:51:35.898Z,25.33
2019-05-11T04:54:04.378Z,27.80
2019-05-11T04:56:33.075Z,29.00
2019-05-11T04:59:01.608Z,27.13
2019-05-11T05:01:30.106Z,27.07
2019-05-11T05:04:13.307Z,26.00
2019-05-11T05:06:28.709Z,21.90
2019-05-11T05:08:58.105Z,21.33
2019-05-11T05:11:30.724Z,20.97
2019-05-11T05:14:02.273Z,27.57
2019-05-11T05:16:31.192Z,19.83
2019-05-11T05:18:57.772Z,19.73
2019-05-11T05:21:26.311Z,19.87
2019-05-11T05:23:54.722Z,17.10
2019-05-11T05:26:23.274Z,17.60
2019-05-11T05:28:51.808Z,20.87
2019-05-11T05:31:20.362Z,17.23
2019-05-11T05:33:48.924Z,19.63
2019-05-11T05:36:17.467Z,15.77
2019-05-11T05:38:45.891Z,15.30
2019-05-11T05:41:14.418Z,16.97
2019-05-11T05:43:43.003Z,26.33
2019-05-11T05:46:11.515Z,18.60
2019-05-11T05:48:39.966Z,16.17
2019-05-11T05:51:08.565Z,15.70
2019-05-11T05:53:37.058Z,22.80
2019-05-11T05:56:05.540Z,15.73
2019-05-11T05:58:34.244Z,17.57
2019-05-11T06:01:02.709Z,17.03
2019-05-11T06:03:31.140Z,20.53
2019-05-11T06:05:59.602Z,17.50
2019-05-11T06:08:28.098Z,18.80
2019-05-11T06:10:56.727Z,18.57
2019-05-11T06:13:25.267Z,16.63
2019-05-11T06:15:53.763Z,17.77
2019-05-11T06:18:22.339Z,14.43
2019-05-11T06:20:50.886Z,13.43
2019-05-11T06:23:21.462Z,15.43
2019-05-11T06:25:49.920Z,12.00
2019-05-11T06:28:18.638Z,15.10
2019-05-11T06:30:47.134Z,13.10
2019-05-11T06:33:15.800Z,13.77
2019-05-11T06:35:44.410Z,13.73
2019-05-11T06:38:12.908Z,13.00
2019-05-11T06:40:41.308Z,10.60
2019-05-11T06:43:09.914Z,10.50
2019-05-11T06:45:38.536Z,9.97
2019-05-11T06:48:07.483Z,15.47
2019-05-11T06:50:39.120Z,9.80
2019-05-11T06:53:07.534Z,9.57
2019-05-11T06:55:36.011Z,10.10
2019-05-11T06:58:04.644Z,8.93
2019-05-11T07:00:33.190Z,9.80
2019-05-11T07:03:01.890Z,11.00
2019-05-11T07:05:30.464Z,10.13
2019-05-11T07:07:59.028Z,8.43
2019-05-11T07:10:27.549Z,14.13
2019-05-11T07:12:56.080Z,224.70
2019-05-11T07:15:24.565Z,196.67
2019-05-11T07:17:53.074Z,196.40
2019-05-11T07:20:21.549Z,199.93
2019-05-11T07:22:50.045Z,222.47
2019-05-11T07:25:18.309Z,197.77
2019-05-11T07:27:46.854Z,227.57
2019-05-11T07:30:15.432Z,213.53
2019-05-11T07:32:43.986Z,224.23
2019-05-11T07:35:12.614Z,226.37
2019-05-11T07:37:41.266Z,225.57
2019-05-11T07:40:09.826Z,216.37
2019-05-11T07:42:38.483Z,219.17
2019-05-11T07:45:09.077Z,226.27
2019-05-11T07:47:38.157Z,214.50
2019-05-11T07:50:08.344Z,207.73
2019-05-11T07:52:37.835Z,223.43
2019-05-11T07:55:08.582Z,221.00
2019-05-11T07:57:39.083Z,214.37
2019-05-11T08:00:08.134Z,209.80
2019-05-11T08:02:38.653Z,198.00
2019-05-11T08:05:08.661Z,209.87
2019-05-11T08:07:37.896Z,208.43
2019-05-11T08:10:08.298Z,201.63
2019-05-11T08:12:39.037Z,204.70
2019-05-11T08:15:12.408Z,214.97
2019-05-11T08:17:38.077Z,229.30
2019-05-11T08:20:08.443Z,235.43
2019-05-11T08:22:37.725Z,238.07
2019-05-11T08:25:09.019Z,239.87
2019-05-11T08:27:37.850Z,226.67
2019-05-11T08:30:10.880Z,230.17
2019-05-11T08:32:39.432Z,131.73
2019-05-11T08:35:08.642Z,20.90
2019-05-11T08:37:38.768Z,16.37
2019-05-11T08:40:07.930Z,11.60
2019-05-11T08:42:37.857Z,17.33
2019-05-11T08:45:19.559Z,13.23
2019-05-11T08:47:37.790Z,9.77
2019-05-11T08:50:08.022Z,9.37
2019-05-11T08:52:38.673Z,15.63
2019-05-11T08:55:08.414Z,11.33
2019-05-11T08:57:38.791Z,6.60
2019-05-11T09:00:08.513Z,11.93
2019-05-11T09:02:38.363Z,10.57
2019-05-11T09:05:08.185Z,11.67
2019-05-11T09:07:38.445Z,22.27
2019-05-11T09:12:38.038Z,10.43
2019-05-11T09:15:08.558Z,13.80
2019-05-11T09:17:38.196Z,13.37
2019-05-11T09:20:08.810Z,7.60
2019-05-11T09:22:38.118Z,10.80
2019-05-11T09:25:08.846Z,7.60
2019-05-11T09:27:37.829Z,11.70
2019-05-11T09:30:08.432Z,5.03
2019-05-11T09:32:38.532Z,9.67
2019-05-11T09:35:08.282Z,7.17
2019-05-11T09:37:38.089Z,9.93
2019-05-11T09:40:07.872Z,15.87
2019-05-11T09:42:38.839Z,8.73
2019-05-11T09:45:08.017Z,10.90
2019-05-11T09:47:38.711Z,9.77
2019-05-11T09:50:08.572Z,11.73
2019-05-11T09:52:38.535Z,10.10
2019-05-11T09:55:08.709Z,8.10
2019-05-11T09:57:38.225Z,7.93
2019-05-11T10:00:08.883Z,9.20
2019-05-11T10:02:38.544Z,11.90
2019-05-11T10:05:08.392Z,8.47
2019-05-11T10:07:38.026Z,8.53
2019-05-11T10:10:09.207Z,12.07
2019-05-11T10:12:37.978Z,8.93
2019-05-11T10:15:08.733Z,12.90
2019-05-11T10:17:38.211Z,9.23
2019-05-11T10:20:09.260Z,11.50
2019-05-11T10:22:38.426Z,6.37
2019-05-11T10:25:08.975Z,6.40
2019-05-11T10:27:38.430Z,4.43
2019-05-11T10:30:08.306Z,16.10
2019-05-11T10:32:37.894Z,7.50
2019-05-11T10:35:07.987Z,8.33
2019-05-11T10:37:38.921Z,9.70
2019-05-11T10:40:09.325Z,12.27
2019-05-11T10:42:37.880Z,212.27
2019-05-11T10:45:09.032Z,215.30
2019-05-11T10:47:38.298Z,231.00
2019-05-11T10:50:08.559Z,232.63
2019-05-11T10:52:38.020Z,253.17
2019-05-11T10:55:08.655Z,249.73
2019-05-11T10:57:38.728Z,244.50
2019-05-11T11:00:09.890Z,246.10
2019-05-11T11:02:38.602Z,236.83
2019-05-11T11:05:08.070Z,236.50
2019-05-11T11:07:38.328Z,237.60
2019-05-11T11:10:08.812Z,241.63
2019-05-11T11:12:38.461Z,227.70
2019-05-11T11:15:07.939Z,238.37
2019-05-11T11:17:38.175Z,94.73
2019-05-11T11:20:08.770Z,19.77
2019-05-11T11:22:42.955Z,122.43
2019-05-11T11:25:07.903Z,73.10
2019-05-11T11:27:38.112Z,14.37
2019-05-11T11:30:09.279Z,9.73
2019-05-11T11:32:38.570Z,33.07
2019-05-11T11:35:08.498Z,25.67
2019-05-11T11:37:38.650Z,12.03
2019-05-11T11:40:09.142Z,15.03
2019-05-11T11:42:37.842Z,15.37
2019-05-11T11:45:09.468Z,21.47
2019-05-11T11:47:38.544Z,14.20
2019-05-11T11:50:09.083Z,15.27
2019-05-11T11:52:38.405Z,16.70
2019-05-11T11:55:10.430Z,16.20
2019-05-11T11:57:39.123Z,12.23
2019-05-11T12:00:09.182Z,13.73
2019-05-11T12:02:38.810Z,13.23
2019-05-11T12:05:08.862Z,21.03
2019-05-11T12:07:38.689Z,17.43
2019-05-11T12:10:08.098Z,19.20
2019-05-11T12:12:38.443Z,21.13
2019-05-11T12:15:08.658Z,21.83
2019-05-11T12:17:37.656Z,21.37
2019-05-11T12:20:08.987Z,12.40
2019-05-11T12:22:38.650Z,15.07
2019-05-11T12:25:07.961Z,14.50
2019-05-11T12:27:38.409Z,17.47
2019-05-11T12:30:09.088Z,125.67
2019-05-11T12:32:45.458Z,10.10
2019-05-11T12:35:13.946Z,15.23
2019-05-11T12:37:42.432Z,17.33
2019-05-11T12:40:12.769Z,14.57
2019-05-11T12:42:41.627Z,12.97
2019-05-11T12:45:10.247Z,25.10
2019-05-11T12:47:38.782Z,7.93
2019-05-11T12:50:08.513Z,15.63
2019-05-11T12:52:38.325Z,11.57
2019-05-11T12:55:08.820Z,13.07
2019-05-11T12:57:38.627Z,15.43
2019-05-11T13:00:08.886Z,17.57
2019-05-11T13:02:38.835Z,13.77
2019-05-11T13:05:08.615Z,10.60
2019-05-11T13:07:39.192Z,15.03
2019-05-11T13:10:08.385Z,20.50
2019-05-11T13:12:38.552Z,17.00
2019-05-11T13:15:08.290Z,11.50
2019-05-11T13:17:38.372Z,9.20
2019-05-11T13:20:08.684Z,13.93
2019-05-11T13:22:38.196Z,9.90
2019-05-11T13:25:08.560Z,14.47
2019-05-11T13:27:38.695Z,6.50
2019-05-11T13:30:08.061Z,15.50
2019-05-11T13:32:38.422Z,8.33
2019-05-11T13:35:09.104Z,9.33
2019-05-11T13:37:38.645Z,5.00
2019-05-11T13:40:09.075Z,12.30
2019-05-11T13:42:38.589Z,11.67
2019-05-11T13:45:08.523Z,9.60
2019-05-11T13:47:50.915Z,6.17
2019-05-11T13:50:07.831Z,7.03
2019-05-11T13:52:38.400Z,11.43
2019-05-11T13:55:07.768Z,10.17
2019-05-11T13:57:38.065Z,13.17
2019-05-11T14:00:09.024Z,15.08
2019-05-11T14:02:38.071Z,10.53
2019-05-11T14:05:08.720Z,4.73
2019-05-11T14:07:38.103Z,6.40
2019-05-11T14:10:08.193Z,9.47
2019-05-11T14:12:38.508Z,13.22
2019-05-11T14:15:10.480Z,11.57
2019-05-11T14:17:39.093Z,10.93
2019-05-11T14:20:08.991Z,8.70
2019-05-11T14:22:38.858Z,19.03
2019-05-11T14:25:08.046Z,9.47
2019-05-11T14:27:39.056Z,5.23
2019-05-11T14:30:08.644Z,5.87
2019-05-11T14:32:38.823Z,15.20
2019-05-11T14:35:11.964Z,10.50
2019-05-11T14:37:38.248Z,11.00
2019-05-11T14:40:09.088Z,12.17
2019-05-11T14:42:38.344Z,13.73
2019-05-11T14:45:08.432Z,21.40
2019-05-11T14:47:38.606Z,17.23
2019-05-11T14:50:08.652Z,27.20
2019-05-11T14:52:38.835Z,15.87
2019-05-11T14:55:08.293Z,13.18
2019-05-11T14:57:39.644Z,11.13
2019-05-11T15:00:08.517Z,7.93
2019-05-11T15:02:48.889Z,10.88
2019-05-11T15:05:20.146Z,21.50
2019-05-11T15:07:52.001Z,10.97
2019-05-11T15:10:18.991Z,14.28
2019-05-11T15:12:48.929Z,10.90
2019-05-11T15:15:18.670Z,15.73
2019-05-11T15:17:49.386Z,15.30
2019-05-11T15:20:17.905Z,8.97
2019-05-11T15:22:48.616Z,10.97
2019-05-11T15:25:19.317Z,9.43
2019-05-11T15:27:48.813Z,10.87
2019-05-11T15:30:18.230Z,15.87
2019-05-11T15:32:48.254Z,7.77
2019-05-11T15:35:18.627Z,8.10
2019-05-11T15:37:48.187Z,11.10
2019-05-11T15:40:18.729Z,13.20
2019-05-11T15:42:48.558Z,12.70
2019-05-11T15:45:18.681Z,18.90
2019-05-11T15:47:48.733Z,10.73
2019-05-11T15:50:19.000Z,10.10
2019-05-11T15:52:48.820Z,11.70
2019-05-11T15:55:18.869Z,12.40
2019-05-11T15:57:48.387Z,14.47
2019-05-11T16:00:17.185Z,9.80
2019-05-11T16:02:48.697Z,13.73
2019-05-11T16:05:18.332Z,11.60
2019-05-11T16:07:46.041Z,12.63
2019-05-11T16:10:14.582Z,12.63
2019-05-11T16:12:43.168Z,10.70
2019-05-11T16:15:11.718Z,15.03
2019-05-11T16:17:40.487Z,11.87
2019-05-11T16:20:09.659Z,14.43
2019-05-11T16:22:38.613Z,10.83
2019-05-11T16:25:08.778Z,11.77
2019-05-11T16:27:38.169Z,9.93
2019-05-11T16:30:10.849Z,14.23
2019-05-11T16:32:39.411Z,8.80
2019-05-11T16:35:08.973Z,12.70
2019-05-11T16:37:38.051Z,11.73
2019-05-11T16:40:09.673Z,12.33
2019-05-11T16:42:38.788Z,12.90
2019-05-11T16:45:08.484Z,12.33
2019-05-11T16:47:39.086Z,10.33
2019-05-11T16:50:10.097Z,24.23
2019-05-11T16:52:38.792Z,8.50
2019-05-11T16:55:08.911Z,14.13
2019-05-11T16:57:38.194Z,10.57
2019-05-11T17:00:08.802Z,7.50
2019-05-11T17:02:38.269Z,6.23
2019-05-11T17:05:07.926Z,10.23
2019-05-11T17:07:37.667Z,7.50
2019-05-11T17:10:08.510Z,12.47
2019-05-11T17:12:38.562Z,15.73
2019-05-11T17:15:11.736Z,10.77
2019-05-11T17:17:40.678Z,14.80
2019-05-11T17:20:09.235Z,19.47
2019-05-11T17:22:38.901Z,17.30
2019-05-11T17:25:08.577Z,18.87
2019-05-11T17:27:37.775Z,17.63
2019-05-11T17:30:08.597Z,8.57
2019-05-11T17:32:38.333Z,21.43
2019-05-11T17:35:08.447Z,9.50
2019-05-11T17:37:38.125Z,33.40
2019-05-11T17:40:09.019Z,25.93
2019-05-11T17:42:37.932Z,20.07
2019-05-11T17:45:09.656Z,13.37
2019-05-11T17:47:38.834Z,17.20
2019-05-11T17:50:08.086Z,12.03
2019-05-11T17:52:38.432Z,21.87
2019-05-11T17:55:09.285Z,14.83
2019-05-11T17:57:38.304Z,16.53
2019-05-11T18:00:07.765Z,9.73
2019-05-11T18:02:38.737Z,14.23
2019-05-11T18:05:08.827Z,14.80
2019-05-11T18:07:38.529Z,12.83
2019-05-11T18:10:08.211Z,9.93
2019-05-11T18:12:39.151Z,13.70
2019-05-11T18:15:08.317Z,15.00
2019-05-11T18:17:37.004Z,13.63
2019-05-11T18:20:17.341Z,11.03
2019-05-11T18:22:39.031Z,14.97
2019-05-11T18:25:08.785Z,26.03
2019-05-11T18:27:38.659Z,16.33
2019-05-11T18:30:09.062Z,18.37
2019-05-11T18:32:39.381Z,23.43
2019-05-11T18:35:08.462Z,26.73
2019-05-11T18:37:38.893Z,21.43
2019-05-11T18:40:07.465Z,23.47
2019-05-11T18:42:38.084Z,16.97
2019-05-11T18:45:08.370Z,14.63
2019-05-11T18:47:38.214Z,16.83
2019-05-11T18:50:07.905Z,11.67
2019-05-11T18:52:36.593Z,11.70
2019-05-11T18:55:08.197Z,291.60
2019-05-11T18:57:38.205Z,252.37
2019-05-11T19:00:08.425Z,255.13
2019-05-11T19:02:38.514Z,249.60
2019-05-11T19:05:07.378Z,245.97
2019-05-11T19:07:35.960Z,251.87
2019-05-11T19:10:08.268Z,259.10
2019-05-11T19:12:37.690Z,254.57
2019-05-11T19:15:10.481Z,247.80
2019-05-11T19:17:39.052Z,246.17
2019-05-11T19:20:08.589Z,246.67
2019-05-11T19:22:38.267Z,245.83
2019-05-11T19:25:08.982Z,254.53
2019-05-11T19:27:37.980Z,256.60
2019-05-11T19:30:08.224Z,251.40
2019-05-11T19:32:38.331Z,263.17
2019-05-11T19:35:08.943Z,232.77
2019-05-11T19:37:41.691Z,257.27
2019-05-11T19:40:10.315Z,245.83
2019-05-11T19:42:53.738Z,251.73
2019-05-11T19:45:22.649Z,265.63
2019-05-11T19:47:51.318Z,261.03
2019-05-11T19:50:19.981Z,253.50
2019-05-11T19:52:48.687Z,254.53
2019-05-11T19:55:18.000Z,247.67
2019-05-11T19:57:48.291Z,256.93
2019-05-11T20:00:18.507Z,277.93
2019-05-11T20:02:47.437Z,231.60
2019-05-11T20:05:18.149Z,254.00
2019-05-11T20:07:48.653Z,247.77
2019-05-11T20:10:18.832Z,250.87
2019-05-11T20:12:48.285Z,243.43
2019-05-11T20:15:18.857Z,249.93
2019-05-11T20:17:48.631Z,247.57
2019-05-11T20:20:18.367Z,240.53
2019-05-11T20:22:48.254Z,240.53
2019-05-11T20:25:18.692Z,235.97
2019-05-11T20:27:48.439Z,240.57
2019-05-11T20:30:18.439Z,253.27
2019-05-11T20:32:48.495Z,241.63
2019-05-11T20:35:17.590Z,251.33
2019-05-11T20:37:46.164Z,257.57
2019-05-11T20:40:14.777Z,263.27
2019-05-11T20:42:43.802Z,246.97
2019-05-11T20:45:14.413Z,242.87
2019-05-11T20:47:43.201Z,256.83
2019-05-11T20:50:11.758Z,243.67
2019-05-11T20:52:42.008Z,248.70
2019-05-11T20:55:10.600Z,251.93
2019-05-11T20:57:39.704Z,251.30
2019-05-11T21:00:11.238Z,253.80
2019-05-11T21:02:40.587Z,252.17
2019-05-11T21:05:09.678Z,246.53
2019-05-11T21:07:39.086Z,247.17
2019-05-11T21:10:09.032Z,246.70
2019-05-11T21:12:38.582Z,236.37
2019-05-11T21:15:08.354Z,237.50
2019-05-11T21:17:36.924Z,252.83
2019-05-11T21:20:07.924Z,241.57
2019-05-11T21:22:40.151Z,255.60
2019-05-11T21:25:09.377Z,244.17
2019-05-11T21:27:38.582Z,255.20
2019-05-11T21:30:10.536Z,250.67
2019-05-11T21:32:40.031Z,247.20
2019-05-11T21:35:09.149Z,234.50
2019-05-11T21:37:38.678Z,241.80
2019-05-11T21:40:09.119Z,234.27
2019-05-11T21:42:38.893Z,237.40
2019-05-11T21:45:09.995Z,231.63
2019-05-11T21:47:39.496Z,230.03
2019-05-11T21:50:09.162Z,240.33
2019-05-11T21:52:38.628Z,233.67
2019-05-11T21:55:09.303Z,229.57
2019-05-11T21:57:38.132Z,239.17
2019-05-11T22:00:10.207Z,240.90
2019-05-11T22:02:39.058Z,242.43
2019-05-11T22:05:08.240Z,245.77
2019-05-11T22:07:41.386Z,241.40
2019-05-11T22:10:09.994Z,231.33
2019-05-11T22:12:39.210Z,237.93
2019-05-11T22:15:09.813Z,250.10
2019-05-11T22:17:39.607Z,238.37
2019-05-11T22:20:09.025Z,241.33
2019-05-11T22:22:38.878Z,230.37
2019-05-11T22:25:08.450Z,234.40
2019-05-11T22:27:38.770Z,238.33
2019-05-11T22:30:08.761Z,236.47
2019-05-11T22:32:38.390Z,231.80
2019-05-11T22:35:09.007Z,230.60
2019-05-11T22:37:38.693Z,233.33
2019-05-11T22:40:08.446Z,227.03
2019-05-11T22:42:37.326Z,225.43
2019-05-11T22:45:09.463Z,232.60
2019-05-11T22:47:39.233Z,227.77
2019-05-11T22:50:11.342Z,228.93
2019-05-11T22:52:40.739Z,228.37
2019-05-11T22:55:11.947Z,222.60
2019-05-11T22:57:39.716Z,221.83
2019-05-11T23:00:11.896Z,225.23
2019-05-11T23:02:40.511Z,226.70
2019-05-11T23:05:09.349Z,228.43
2019-05-11T23:07:41.267Z,231.43
2019-05-11T23:10:10.025Z,227.70
2019-05-11T23:12:38.743Z,228.23
2019-05-11T23:15:12.266Z,221.23
2019-05-11T23:17:40.950Z,229.67
2019-05-11T23:20:10.801Z,223.80
2019-05-11T23:22:56.820Z,229.60
2019-05-11T23:25:18.601Z,225.93
2019-05-11T23:27:48.558Z,240.67
2019-05-11T23:30:19.758Z,226.03
2019-05-11T23:32:48.486Z,225.00
2019-05-11T23:35:20.334Z,225.63
2019-05-11T23:37:49.790Z,234.93
2019-05-11T23:40:19.320Z,229.90
2019-05-11T23:42:48.988Z,227.23
2019-05-11T23:45:18.901Z,226.17
2019-05-11T23:47:48.603Z,234.03
2019-05-11T23:50:18.991Z,228.53
2019-05-11T23:52:50.185Z,239.20
2019-05-11T23:55:18.986Z,225.13
2019-05-11T23:57:48.689Z,226.43
